sensor_id;sensor_type;location;lat;lon;timestamp;temperature;humidity
15262;DHT22;7733;51.554;13.590;2023-06-10T00:01:45;20.60;95.40
15262;DHT22;7733;51.554;13.590;2023-06-10T00:04:14;20.30;95.70
15262;DHT22;7733;51.554;13.590;2023-06-10T00:06:44;20.30;96.30
15262;DHT22;7733;51.554;13.590;2023-06-10T00:09:13;20.10;96.80
15262;DHT22;7733;51.554;13.590;2023-06-10T00:11:40;20.00;97.50
15262;DHT22;7733;51.554;13.590;2023-06-10T00:14:07;19.90;97.90
15262;DHT22;7733;51.554;13.590;2023-06-10T00:16:33;19.90;97.90
15262;DHT22;7733;51.554;13.590;2023-06-10T00:19:00;20.00;98.10
15262;DHT22;7733;51.554;13.590;2023-06-10T00:21:27;19.80;98.80
15262;DHT22;7733;51.554;13.590;2023-06-10T00:23:54;19.90;99.10
15262;DHT22;7733;51.554;13.590;2023-06-10T00:26:24;19.80;99.50
15262;DHT22;7733;51.554;13.590;2023-06-10T00:28:50;19.90;99.60
15262;DHT22;7733;51.554;13.590;2023-06-10T00:31:16;19.80;99.90
15262;DHT22;7733;51.554;13.590;2023-06-10T00:33:42;19.70;99.90
15262;DHT22;7733;51.554;13.590;2023-06-10T00:36:08;19.80;99.90
15262;DHT22;7733;51.554;13.590;2023-06-10T00:38:34;19.90;99.90
15262;DHT22;7733;51.554;13.590;2023-06-10T00:41:00;19.80;99.90
15262;DHT22;7733;51.554;13.590;2023-06-10T00:43:26;19.60;99.90
15262;DHT22;7733;51.554;13.590;2023-06-10T00:45:52;19.50;99.90
15262;DHT22;7733;51.554;13.590;2023-06-10T00:48:18;19.60;99.90
15262;DHT22;7733;51.554;13.590;2023-06-10T00:50:45;19.60;99.90
15262;DHT22;7733;51.554;13.590;2023-06-10T00:53:12;19.60;99.90
15262;DHT22;7733;51.554;13.590;2023-06-10T00:55:38;19.70;99.90
15262;DHT22;7733;51.554;13.590;2023-06-10T00:58:04;19.60;99.90
15262;DHT22;7733;51.554;13.590;2023-06-10T01:00:30;19.60;99.90
15262;DHT22;7733;51.554;13.590;2023-06-10T01:02:56;19.40;99.90
15262;DHT22;7733;51.554;13.590;2023-06-10T01:05:23;19.20;99.90
15262;DHT22;7733;51.554;13.590;2023-06-10T01:08:09;19.30;99.90
15262;DHT22;7733;51.554;13.590;2023-06-10T01:11:04;19.20;99.90
15262;DHT22;7733;51.554;13.590;2023-06-10T01:13:36;19.20;99.90
15262;DHT22;7733;51.554;13.590;2023-06-10T01:16:07;19.20;99.90
15262;DHT22;7733;51.554;13.590;2023-06-10T01:18:33;19.00;99.90
15262;DHT22;7733;51.554;13.590;2023-06-10T01:20:58;19.00;99.90
15262;DHT22;7733;51.554;13.590;2023-06-10T01:23:24;18.80;99.90
15262;DHT22;7733;51.554;13.590;2023-06-10T01:29:11;18.60;99.90
15262;DHT22;7733;51.554;13.590;2023-06-10T01:31:45;18.60;99.90
15262;DHT22;7733;51.554;13.590;2023-06-10T01:34:18;18.80;99.90
15262;DHT22;7733;51.554;13.590;2023-06-10T01:36:47;18.60;99.90
15262;DHT22;7733;51.554;13.590;2023-06-10T01:39:15;18.40;99.90
15262;DHT22;7733;51.554;13.590;2023-06-10T01:41:42;18.40;99.90
15262;DHT22;7733;51.554;13.590;2023-06-10T01:44:09;18.60;99.90
15262;DHT22;7733;51.554;13.590;2023-06-10T01:46:36;18.50;99.90
15262;DHT22;7733;51.554;13.590;2023-06-10T01:49:01;18.50;99.90
15262;DHT22;7733;51.554;13.590;2023-06-10T01:51:27;18.40;99.90
15262;DHT22;7733;51.554;13.590;2023-06-10T01:53:53;18.50;99.90
15262;DHT22;7733;51.554;13.590;2023-06-10T01:56:19;18.60;99.90
15262;DHT22;7733;51.554;13.590;2023-06-10T01:58:48;18.70;99.90
15262;DHT22;7733;51.554;13.590;2023-06-10T02:01:14;18.60;99.90
15262;DHT22;7733;51.554;13.590;2023-06-10T02:03:40;18.50;99.90
15262;DHT22;7733;51.554;13.590;2023-06-10T02:06:06;18.40;99.90
15262;DHT22;7733;51.554;13.590;2023-06-10T02:08:32;18.40;99.90
15262;DHT22;7733;51.554;13.590;2023-06-10T02:10:57;18.30;99.90
15262;DHT22;7733;51.554;13.590;2023-06-10T02:13:23;18.40;99.90
15262;DHT22;7733;51.554;13.590;2023-06-10T02:15:49;18.50;99.90
15262;DHT22;7733;51.554;13.590;2023-06-10T02:18:15;18.40;99.90
15262;DHT22;7733;51.554;13.590;2023-06-10T02:20:41;18.20;99.90
15262;DHT22;7733;51.554;13.590;2023-06-10T02:23:06;18.20;99.90
15262;DHT22;7733;51.554;13.590;2023-06-10T02:25:32;18.30;99.90
15262;DHT22;7733;51.554;13.590;2023-06-10T02:27:58;18.30;99.90
15262;DHT22;7733;51.554;13.590;2023-06-10T02:30:23;18.30;99.90
15262;DHT22;7733;51.554;13.590;2023-06-10T02:32:49;18.30;99.90
15262;DHT22;7733;51.554;13.590;2023-06-10T02:35:17;18.20;99.90
15262;DHT22;7733;51.554;13.590;2023-06-10T02:37:43;18.30;99.90
15262;DHT22;7733;51.554;13.590;2023-06-10T02:40:10;18.30;99.90
15262;DHT22;7733;51.554;13.590;2023-06-10T02:42:36;18.30;99.90
15262;DHT22;7733;51.554;13.590;2023-06-10T02:45:02;18.20;99.90
15262;DHT22;7733;51.554;13.590;2023-06-10T02:47:28;18.20;99.90
15262;DHT22;7733;51.554;13.590;2023-06-10T02:49:55;18.10;99.90
15262;DHT22;7733;51.554;13.590;2023-06-10T02:52:20;18.00;99.90
15262;DHT22;7733;51.554;13.590;2023-06-10T02:54:46;18.10;99.90
15262;DHT22;7733;51.554;13.590;2023-06-10T02:57:12;18.00;99.90
15262;DHT22;7733;51.554;13.590;2023-06-10T02:59:39;18.00;99.90
15262;DHT22;7733;51.554;13.590;2023-06-10T03:02:05;18.00;99.90
15262;DHT22;7733;51.554;13.590;2023-06-10T03:04:31;18.10;99.90
15262;DHT22;7733;51.554;13.590;2023-06-10T03:06:57;18.10;99.90
15262;DHT22;7733;51.554;13.590;2023-06-10T03:09:23;18.00;99.90
15262;DHT22;7733;51.554;13.590;2023-06-10T03:11:48;17.60;99.90
15262;DHT22;7733;51.554;13.590;2023-06-10T03:14:14;17.60;99.90
15262;DHT22;7733;51.554;13.590;2023-06-10T03:16:40;17.60;99.90
15262;DHT22;7733;51.554;13.590;2023-06-10T03:19:06;17.60;99.90
15262;DHT22;7733;51.554;13.590;2023-06-10T03:21:33;17.70;99.90
15262;DHT22;7733;51.554;13.590;2023-06-10T03:24:03;17.70;99.90
15262;DHT22;7733;51.554;13.590;2023-06-10T03:26:29;17.60;99.90
15262;DHT22;7733;51.554;13.590;2023-06-10T03:28:55;17.60;99.90
15262;DHT22;7733;51.554;13.590;2023-06-10T03:31:20;17.60;99.90
15262;DHT22;7733;51.554;13.590;2023-06-10T03:33:46;17.80;99.90
15262;DHT22;7733;51.554;13.590;2023-06-10T03:36:12;17.80;99.90
15262;DHT22;7733;51.554;13.590;2023-06-10T03:38:38;17.60;99.90
15262;DHT22;7733;51.554;13.590;2023-06-10T03:41:03;17.50;99.90
15262;DHT22;7733;51.554;13.590;2023-06-10T03:43:29;17.70;99.90
15262;DHT22;7733;51.554;13.590;2023-06-10T03:45:56;17.70;99.90
15262;DHT22;7733;51.554;13.590;2023-06-10T03:48:22;17.60;99.90
15262;DHT22;7733;51.554;13.590;2023-06-10T03:50:48;17.40;99.90
15262;DHT22;7733;51.554;13.590;2023-06-10T03:53:16;17.40;99.90
15262;DHT22;7733;51.554;13.590;2023-06-10T03:55:42;17.60;99.90
15262;DHT22;7733;51.554;13.590;2023-06-10T03:58:08;17.70;99.90
15262;DHT22;7733;51.554;13.590;2023-06-10T04:00:33;17.80;99.90
15262;DHT22;7733;51.554;13.590;2023-06-10T04:03:07;17.90;99.90
15262;DHT22;7733;51.554;13.590;2023-06-10T04:05:35;17.90;99.90
15262;DHT22;7733;51.554;13.590;2023-06-10T04:08:01;17.70;99.90
15262;DHT22;7733;51.554;13.590;2023-06-10T04:10:27;17.70;99.90
15262;DHT22;7733;51.554;13.590;2023-06-10T04:12:53;17.80;99.90
15262;DHT22;7733;51.554;13.590;2023-06-10T04:15:19;17.80;99.90
15262;DHT22;7733;51.554;13.590;2023-06-10T04:17:45;17.90;99.90
15262;DHT22;7733;51.554;13.590;2023-06-10T04:20:11;18.00;99.90
15262;DHT22;7733;51.554;13.590;2023-06-10T04:22:37;17.90;99.90
15262;DHT22;7733;51.554;13.590;2023-06-10T04:25:02;17.90;99.90
15262;DHT22;7733;51.554;13.590;2023-06-10T04:27:29;17.90;99.90
15262;DHT22;7733;51.554;13.590;2023-06-10T04:29:55;18.00;99.90
15262;DHT22;7733;51.554;13.590;2023-06-10T04:32:21;18.10;99.90
15262;DHT22;7733;51.554;13.590;2023-06-10T04:34:47;18.10;99.90
15262;DHT22;7733;51.554;13.590;2023-06-10T04:37:12;18.20;99.90
15262;DHT22;7733;51.554;13.590;2023-06-10T04:39:38;18.20;99.90
15262;DHT22;7733;51.554;13.590;2023-06-10T04:42:04;18.20;99.90
15262;DHT22;7733;51.554;13.590;2023-06-10T04:44:31;18.20;99.90
15262;DHT22;7733;51.554;13.590;2023-06-10T04:46:56;18.20;99.90
15262;DHT22;7733;51.554;13.590;2023-06-10T04:49:22;18.10;99.90
15262;DHT22;7733;51.554;13.590;2023-06-10T04:51:48;18.30;99.90
15262;DHT22;7733;51.554;13.590;2023-06-10T04:54:13;18.30;99.90
15262;DHT22;7733;51.554;13.590;2023-06-10T04:56:39;18.30;99.90
15262;DHT22;7733;51.554;13.590;2023-06-10T04:59:05;18.40;99.90
15262;DHT22;7733;51.554;13.590;2023-06-10T05:01:30;18.40;99.90
15262;DHT22;7733;51.554;13.590;2023-06-10T05:03:56;18.50;99.90
15262;DHT22;7733;51.554;13.590;2023-06-10T05:06:22;18.50;99.90
15262;DHT22;7733;51.554;13.590;2023-06-10T05:08:48;18.60;99.90
15262;DHT22;7733;51.554;13.590;2023-06-10T05:11:13;18.70;99.90
15262;DHT22;7733;51.554;13.590;2023-06-10T05:13:41;18.80;99.90
15262;DHT22;7733;51.554;13.590;2023-06-10T05:16:08;18.80;99.90
15262;DHT22;7733;51.554;13.590;2023-06-10T05:18:34;18.90;99.90
15262;DHT22;7733;51.554;13.590;2023-06-10T05:21:01;18.90;99.90
15262;DHT22;7733;51.554;13.590;2023-06-10T05:23:27;19.00;99.90
15262;DHT22;7733;51.554;13.590;2023-06-10T05:25:54;19.10;99.90
15262;DHT22;7733;51.554;13.590;2023-06-10T05:28:20;19.20;99.90
15262;DHT22;7733;51.554;13.590;2023-06-10T05:30:46;19.30;99.90
15262;DHT22;7733;51.554;13.590;2023-06-10T05:33:11;19.30;99.90
15262;DHT22;7733;51.554;13.590;2023-06-10T05:35:37;19.30;99.90
15262;DHT22;7733;51.554;13.590;2023-06-10T05:38:03;19.50;99.90
15262;DHT22;7733;51.554;13.590;2023-06-10T05:40:29;19.60;99.90
15262;DHT22;7733;51.554;13.590;2023-06-10T05:42:54;19.70;99.90
15262;DHT22;7733;51.554;13.590;2023-06-10T05:45:20;19.60;99.90
15262;DHT22;7733;51.554;13.590;2023-06-10T05:47:46;19.70;99.90
15262;DHT22;7733;51.554;13.590;2023-06-10T05:50:12;19.70;99.90
15262;DHT22;7733;51.554;13.590;2023-06-10T05:52:37;19.80;99.90
15262;DHT22;7733;51.554;13.590;2023-06-10T05:55:05;20.10;99.90
15262;DHT22;7733;51.554;13.590;2023-06-10T05:57:32;20.20;99.90
15262;DHT22;7733;51.554;13.590;2023-06-10T05:59:58;20.00;99.90
15262;DHT22;7733;51.554;13.590;2023-06-10T06:02:24;19.70;99.90
15262;DHT22;7733;51.554;13.590;2023-06-10T06:04:49;20.10;99.90
15262;DHT22;7733;51.554;13.590;2023-06-10T06:07:15;20.40;99.90
15262;DHT22;7733;51.554;13.590;2023-06-10T06:09:41;20.20;99.90
15262;DHT22;7733;51.554;13.590;2023-06-10T06:12:07;20.20;99.90
15262;DHT22;7733;51.554;13.590;2023-06-10T06:14:37;20.40;99.90
15262;DHT22;7733;51.554;13.590;2023-06-10T06:17:06;20.50;99.90
15262;DHT22;7733;51.554;13.590;2023-06-10T06:19:33;20.50;99.90
15262;DHT22;7733;51.554;13.590;2023-06-10T06:21:59;20.40;99.90
15262;DHT22;7733;51.554;13.590;2023-06-10T06:24:25;20.10;99.90
15262;DHT22;7733;51.554;13.590;2023-06-10T06:26:50;20.30;99.90
15262;DHT22;7733;51.554;13.590;2023-06-10T06:29:16;20.70;99.90
15262;DHT22;7733;51.554;13.590;2023-06-10T06:31:42;20.70;99.90
15262;DHT22;7733;51.554;13.590;2023-06-10T06:34:07;20.60;99.90
15262;DHT22;7733;51.554;13.590;2023-06-10T06:36:33;20.60;99.90
15262;DHT22;7733;51.554;13.590;2023-06-10T06:38:59;20.80;99.90
15262;DHT22;7733;51.554;13.590;2023-06-10T06:41:28;21.10;99.90
15262;DHT22;7733;51.554;13.590;2023-06-10T06:43:54;21.30;99.90
15262;DHT22;7733;51.554;13.590;2023-06-10T06:46:20;21.50;99.90
15262;DHT22;7733;51.554;13.590;2023-06-10T06:48:47;21.60;99.90
15262;DHT22;7733;51.554;13.590;2023-06-10T06:51:13;21.60;99.90
15262;DHT22;7733;51.554;13.590;2023-06-10T06:53:39;21.60;99.90
15262;DHT22;7733;51.554;13.590;2023-06-10T06:56:10;21.80;99.90
15262;DHT22;7733;51.554;13.590;2023-06-10T06:58:39;21.80;99.90
15262;DHT22;7733;51.554;13.590;2023-06-10T07:01:05;21.90;99.90
15262;DHT22;7733;51.554;13.590;2023-06-10T07:03:31;22.10;99.90
15262;DHT22;7733;51.554;13.590;2023-06-10T07:05:57;22.00;99.90
15262;DHT22;7733;51.554;13.590;2023-06-10T07:08:23;22.10;99.90
15262;DHT22;7733;51.554;13.590;2023-06-10T07:10:49;22.30;99.90
15262;DHT22;7733;51.554;13.590;2023-06-10T07:13:15;22.30;99.90
15262;DHT22;7733;51.554;13.590;2023-06-10T07:15:41;22.50;99.90
15262;DHT22;7733;51.554;13.590;2023-06-10T07:18:06;22.70;99.90
15262;DHT22;7733;51.554;13.590;2023-06-10T07:20:32;22.70;99.90
15262;DHT22;7733;51.554;13.590;2023-06-10T07:22:58;22.90;99.90
15262;DHT22;7733;51.554;13.590;2023-06-10T07:25:23;23.20;99.90
15262;DHT22;7733;51.554;13.590;2023-06-10T07:27:49;23.30;99.90
15262;DHT22;7733;51.554;13.590;2023-06-10T07:30:15;23.30;99.90
15262;DHT22;7733;51.554;13.590;2023-06-10T07:32:41;23.30;99.90
15262;DHT22;7733;51.554;13.590;2023-06-10T07:35:08;23.40;99.90
15262;DHT22;7733;51.554;13.590;2023-06-10T07:37:38;23.50;99.90
15262;DHT22;7733;51.554;13.590;2023-06-10T07:40:04;23.80;99.90
15262;DHT22;7733;51.554;13.590;2023-06-10T07:42:32;23.90;99.90
15262;DHT22;7733;51.554;13.590;2023-06-10T07:45:00;24.00;99.90
15262;DHT22;7733;51.554;13.590;2023-06-10T07:47:26;24.30;99.90
15262;DHT22;7733;51.554;13.590;2023-06-10T07:49:51;24.50;99.90
15262;DHT22;7733;51.554;13.590;2023-06-10T07:52:17;24.70;99.90
15262;DHT22;7733;51.554;13.590;2023-06-10T07:54:43;24.90;99.90
15262;DHT22;7733;51.554;13.590;2023-06-10T07:57:08;25.10;99.60
15262;DHT22;7733;51.554;13.590;2023-06-10T07:59:35;25.10;98.50
15262;DHT22;7733;51.554;13.590;2023-06-10T08:02:00;25.30;97.80
15262;DHT22;7733;51.554;13.590;2023-06-10T08:04:26;25.30;97.40
15262;DHT22;7733;51.554;13.590;2023-06-10T08:06:52;25.50;97.00
15262;DHT22;7733;51.554;13.590;2023-06-10T08:09:17;25.60;96.30
15262;DHT22;7733;51.554;13.590;2023-06-10T08:11:44;25.80;95.60
15262;DHT22;7733;51.554;13.590;2023-06-10T08:14:12;25.80;95.10
15262;DHT22;7733;51.554;13.590;2023-06-10T08:16:37;25.80;94.00
15262;DHT22;7733;51.554;13.590;2023-06-10T08:19:03;26.10;94.00
15262;DHT22;7733;51.554;13.590;2023-06-10T08:21:29;26.40;93.80
15262;DHT22;7733;51.554;13.590;2023-06-10T08:23:55;26.40;93.40
15262;DHT22;7733;51.554;13.590;2023-06-10T08:26:21;26.60;93.30
15262;DHT22;7733;51.554;13.590;2023-06-10T08:28:46;26.60;92.60
15262;DHT22;7733;51.554;13.590;2023-06-10T08:31:12;26.80;92.20
15262;DHT22;7733;51.554;13.590;2023-06-10T08:33:38;26.80;91.20
15262;DHT22;7733;51.554;13.590;2023-06-10T08:36:04;27.10;91.20
15262;DHT22;7733;51.554;13.590;2023-06-10T08:38:29;27.10;90.00
15262;DHT22;7733;51.554;13.590;2023-06-10T08:40:59;27.20;89.20
15262;DHT22;7733;51.554;13.590;2023-06-10T08:43:42;27.00;87.90
15262;DHT22;7733;51.554;13.590;2023-06-10T08:46:12;27.30;88.50
15262;DHT22;7733;51.554;13.590;2023-06-10T08:48:43;27.40;87.20
15262;DHT22;7733;51.554;13.590;2023-06-10T08:51:12;27.70;85.50
15262;DHT22;7733;51.554;13.590;2023-06-10T08:53:50;27.60;84.20
15262;DHT22;7733;51.554;13.590;2023-06-10T08:56:23;27.90;84.80
15262;DHT22;7733;51.554;13.590;2023-06-10T08:58:52;28.00;82.70
15262;DHT22;7733;51.554;13.590;2023-06-10T09:01:19;27.90;81.80
15262;DHT22;7733;51.554;13.590;2023-06-10T09:03:45;28.10;82.00
15262;DHT22;7733;51.554;13.590;2023-06-10T09:06:11;28.10;80.80
15262;DHT22;7733;51.554;13.590;2023-06-10T09:08:39;28.00;80.70
15262;DHT22;7733;51.554;13.590;2023-06-10T09:11:05;28.00;80.20
15262;DHT22;7733;51.554;13.590;2023-06-10T09:13:31;28.30;80.60
15262;DHT22;7733;51.554;13.590;2023-06-10T09:15:57;28.40;77.70
15262;DHT22;7733;51.554;13.590;2023-06-10T09:18:27;28.40;76.50
15262;DHT22;7733;51.554;13.590;2023-06-10T09:20:53;28.60;79.00
15262;DHT22;7733;51.554;13.590;2023-06-10T09:23:19;28.80;75.60
15262;DHT22;7733;51.554;13.590;2023-06-10T09:25:45;29.10;73.50
15262;DHT22;7733;51.554;13.590;2023-06-10T09:28:15;29.00;73.50
15262;DHT22;7733;51.554;13.590;2023-06-10T09:30:41;29.10;72.20
15262;DHT22;7733;51.554;13.590;2023-06-10T09:33:14;29.10;71.80
15262;DHT22;7733;51.554;13.590;2023-06-10T09:35:48;29.00;72.40
15262;DHT22;7733;51.554;13.590;2023-06-10T09:38:19;29.40;71.60
15262;DHT22;7733;51.554;13.590;2023-06-10T09:43:16;29.10;72.50
15262;DHT22;7733;51.554;13.590;2023-06-10T09:45:43;28.90;74.00
15262;DHT22;7733;51.554;13.590;2023-06-10T09:48:09;28.90;74.80
15262;DHT22;7733;51.554;13.590;2023-06-10T09:50:36;29.10;74.20
15262;DHT22;7733;51.554;13.590;2023-06-10T09:53:07;29.00;74.40
15262;DHT22;7733;51.554;13.590;2023-06-10T09:55:33;29.30;74.30
15262;DHT22;7733;51.554;13.590;2023-06-10T09:57:59;29.40;73.30
15262;DHT22;7733;51.554;13.590;2023-06-10T10:00:25;29.40;72.80
15262;DHT22;7733;51.554;13.590;2023-06-10T10:02:52;29.80;73.40
15262;DHT22;7733;51.554;13.590;2023-06-10T10:05:21;30.00;72.70
15262;DHT22;7733;51.554;13.590;2023-06-10T10:07:47;30.10;72.30
15262;DHT22;7733;51.554;13.590;2023-06-10T10:10:15;30.20;71.50
15262;DHT22;7733;51.554;13.590;2023-06-10T10:12:42;30.30;71.00
15262;DHT22;7733;51.554;13.590;2023-06-10T10:15:11;30.30;70.00
15262;DHT22;7733;51.554;13.590;2023-06-10T10:17:49;30.30;70.30
15262;DHT22;7733;51.554;13.590;2023-06-10T10:20:22;30.30;70.40
15262;DHT22;7733;51.554;13.590;2023-06-10T10:22:57;30.60;70.10
15262;DHT22;7733;51.554;13.590;2023-06-10T10:25:28;30.90;69.30
15262;DHT22;7733;51.554;13.590;2023-06-10T10:28:02;31.00;68.50
15262;DHT22;7733;51.554;13.590;2023-06-10T10:30:40;30.40;68.80
15262;DHT22;7733;51.554;13.590;2023-06-10T10:33:19;30.40;68.00
15262;DHT22;7733;51.554;13.590;2023-06-10T10:35:49;30.40;68.20
15262;DHT22;7733;51.554;13.590;2023-06-10T10:38:16;30.30;68.60
15262;DHT22;7733;51.554;13.590;2023-06-10T10:40:44;30.30;68.70
15262;DHT22;7733;51.554;13.590;2023-06-10T10:43:10;30.20;68.10
15262;DHT22;7733;51.554;13.590;2023-06-10T10:45:37;30.50;67.30
15262;DHT22;7733;51.554;13.590;2023-06-10T10:48:08;30.60;67.70
15262;DHT22;7733;51.554;13.590;2023-06-10T10:50:38;30.10;66.30
15262;DHT22;7733;51.554;13.590;2023-06-10T10:53:05;29.70;66.90
15262;DHT22;7733;51.554;13.590;2023-06-10T10:55:31;30.10;67.50
15262;DHT22;7733;51.554;13.590;2023-06-10T10:58:05;30.30;67.50
15262;DHT22;7733;51.554;13.590;2023-06-10T11:00:32;30.20;67.50
15262;DHT22;7733;51.554;13.590;2023-06-10T11:05:42;30.40;66.80
15262;DHT22;7733;51.554;13.590;2023-06-10T11:08:13;30.60;67.10
15262;DHT22;7733;51.554;13.590;2023-06-10T11:10:59;30.50;67.40
15262;DHT22;7733;51.554;13.590;2023-06-10T11:13:26;30.70;68.00
15262;DHT22;7733;51.554;13.590;2023-06-10T11:15:57;31.10;63.10
15262;DHT22;7733;51.554;13.590;2023-06-10T11:18:30;30.40;61.90
15262;DHT22;7733;51.554;13.590;2023-06-10T11:21:04;30.40;62.70
15262;DHT22;7733;51.554;13.590;2023-06-10T11:23:33;30.50;63.10
15262;DHT22;7733;51.554;13.590;2023-06-10T11:31:33;30.20;63.70
15262;DHT22;7733;51.554;13.590;2023-06-10T11:34:09;30.20;63.40
15262;DHT22;7733;51.554;13.590;2023-06-10T11:36:41;30.80;63.60
15262;DHT22;7733;51.554;13.590;2023-06-10T11:39:09;30.90;59.00
15262;DHT22;7733;51.554;13.590;2023-06-10T11:41:37;30.50;59.40
15262;DHT22;7733;51.554;13.590;2023-06-10T11:44:07;30.30;59.90
15262;DHT22;7733;51.554;13.590;2023-06-10T11:46:37;30.70;61.70
15262;DHT22;7733;51.554;13.590;2023-06-10T11:49:05;31.10;60.70
15262;DHT22;7733;51.554;13.590;2023-06-10T11:51:39;31.30;62.20
15262;DHT22;7733;51.554;13.590;2023-06-10T11:54:08;31.30;60.80
15262;DHT22;7733;51.554;13.590;2023-06-10T11:56:35;31.10;60.40
15262;DHT22;7733;51.554;13.590;2023-06-10T11:59:06;30.90;59.30
15262;DHT22;7733;51.554;13.590;2023-06-10T12:01:43;30.30;58.00
15262;DHT22;7733;51.554;13.590;2023-06-10T12:04:12;30.50;58.10
15262;DHT22;7733;51.554;13.590;2023-06-10T12:06:39;30.90;58.50
15262;DHT22;7733;51.554;13.590;2023-06-10T12:09:18;31.00;55.60
15262;DHT22;7733;51.554;13.590;2023-06-10T12:11:45;30.80;54.30
15262;DHT22;7733;51.554;13.590;2023-06-10T12:14:13;30.80;54.90
15262;DHT22;7733;51.554;13.590;2023-06-10T12:16:40;31.20;55.60
15262;DHT22;7733;51.554;13.590;2023-06-10T12:19:06;31.60;56.20
15262;DHT22;7733;51.554;13.590;2023-06-10T12:21:33;31.60;56.30
15262;DHT22;7733;51.554;13.590;2023-06-10T12:24:04;31.40;57.20
15262;DHT22;7733;51.554;13.590;2023-06-10T12:26:40;31.00;57.10
15262;DHT22;7733;51.554;13.590;2023-06-10T12:29:24;31.00;57.00
15262;DHT22;7733;51.554;13.590;2023-06-10T12:31:57;30.70;57.20
15262;DHT22;7733;51.554;13.590;2023-06-10T12:34:38;30.80;57.40
15262;DHT22;7733;51.554;13.590;2023-06-10T12:37:10;31.00;57.00
15262;DHT22;7733;51.554;13.590;2023-06-10T12:39:39;31.30;56.00
15262;DHT22;7733;51.554;13.590;2023-06-10T12:42:06;31.20;55.10
15262;DHT22;7733;51.554;13.590;2023-06-10T12:44:38;31.00;55.30
15262;DHT22;7733;51.554;13.590;2023-06-10T12:47:10;30.90;55.30
15262;DHT22;7733;51.554;13.590;2023-06-10T12:49:39;30.70;54.40
15262;DHT22;7733;51.554;13.590;2023-06-10T12:52:05;30.50;55.60
15262;DHT22;7733;51.554;13.590;2023-06-10T12:54:31;31.20;54.80
15262;DHT22;7733;51.554;13.590;2023-06-10T12:56:57;31.40;54.80
15262;DHT22;7733;51.554;13.590;2023-06-10T12:59:24;31.50;53.80
15262;DHT22;7733;51.554;13.590;2023-06-10T13:01:54;31.10;53.10
15262;DHT22;7733;51.554;13.590;2023-06-10T13:04:20;31.20;53.60
15262;DHT22;7733;51.554;13.590;2023-06-10T13:06:47;30.80;54.70
15262;DHT22;7733;51.554;13.590;2023-06-10T13:09:14;30.90;54.60
15262;DHT22;7733;51.554;13.590;2023-06-10T13:11:41;30.80;54.70
15262;DHT22;7733;51.554;13.590;2023-06-10T13:14:08;30.40;54.80
15262;DHT22;7733;51.554;13.590;2023-06-10T13:16:36;30.30;55.60
15262;DHT22;7733;51.554;13.590;2023-06-10T13:19:03;29.90;57.00
15262;DHT22;7733;51.554;13.590;2023-06-10T13:21:31;29.70;57.80
15262;DHT22;7733;51.554;13.590;2023-06-10T13:23:58;29.40;58.30
15262;DHT22;7733;51.554;13.590;2023-06-10T13:26:23;29.40;59.10
15262;DHT22;7733;51.554;13.590;2023-06-10T13:28:49;29.30;59.50
15262;DHT22;7733;51.554;13.590;2023-06-10T13:31:15;29.80;59.20
15262;DHT22;7733;51.554;13.590;2023-06-10T13:33:41;30.20;58.50
15262;DHT22;7733;51.554;13.590;2023-06-10T13:36:09;30.20;58.20
15262;DHT22;7733;51.554;13.590;2023-06-10T13:38:35;30.50;57.00
15262;DHT22;7733;51.554;13.590;2023-06-10T13:41:01;30.20;57.70
15262;DHT22;7733;51.554;13.590;2023-06-10T13:43:27;29.40;59.70
15262;DHT22;7733;51.554;13.590;2023-06-10T13:45:54;29.00;61.10
15262;DHT22;7733;51.554;13.590;2023-06-10T13:48:20;28.80;61.60
15262;DHT22;7733;51.554;13.590;2023-06-10T13:50:46;28.70;62.30
15262;DHT22;7733;51.554;13.590;2023-06-10T13:53:12;28.60;62.70
15262;DHT22;7733;51.554;13.590;2023-06-10T13:55:38;28.60;61.50
15262;DHT22;7733;51.554;13.590;2023-06-10T13:58:04;28.50;61.70
15262;DHT22;7733;51.554;13.590;2023-06-10T14:00:30;28.40;61.50
15262;DHT22;7733;51.554;13.590;2023-06-10T14:02:56;28.30;62.30
15262;DHT22;7733;51.554;13.590;2023-06-10T14:05:22;28.10;63.40
15262;DHT22;7733;51.554;13.590;2023-06-10T14:07:48;28.20;63.30
15262;DHT22;7733;51.554;13.590;2023-06-10T14:10:14;28.00;63.30
15262;DHT22;7733;51.554;13.590;2023-06-10T14:12:40;27.80;64.00
15262;DHT22;7733;51.554;13.590;2023-06-10T14:15:06;27.70;63.60
15262;DHT22;7733;51.554;13.590;2023-06-10T14:17:32;27.80;64.10
15262;DHT22;7733;51.554;13.590;2023-06-10T14:19:58;28.20;63.40
15262;DHT22;7733;51.554;13.590;2023-06-10T14:22:23;28.70;63.20
15262;DHT22;7733;51.554;13.590;2023-06-10T14:24:49;29.00;61.50
15262;DHT22;7733;51.554;13.590;2023-06-10T14:27:15;29.10;61.30
15262;DHT22;7733;51.554;13.590;2023-06-10T14:29:40;29.00;61.80
15262;DHT22;7733;51.554;13.590;2023-06-10T14:32:06;28.90;62.30
15262;DHT22;7733;51.554;13.590;2023-06-10T14:34:32;28.80;61.90
15262;DHT22;7733;51.554;13.590;2023-06-10T14:36:59;28.80;62.00
15262;DHT22;7733;51.554;13.590;2023-06-10T14:39:26;28.80;61.40
15262;DHT22;7733;51.554;13.590;2023-06-10T14:41:51;28.80;61.80
15262;DHT22;7733;51.554;13.590;2023-06-10T14:44:20;29.00;62.20
15262;DHT22;7733;51.554;13.590;2023-06-10T14:46:46;29.30;61.00
15262;DHT22;7733;51.554;13.590;2023-06-10T14:49:11;29.80;61.00
15262;DHT22;7733;51.554;13.590;2023-06-10T14:51:37;30.20;59.20
15262;DHT22;7733;51.554;13.590;2023-06-10T14:54:03;30.60;58.80
15262;DHT22;7733;51.554;13.590;2023-06-10T14:56:29;30.80;57.60
15262;DHT22;7733;51.554;13.590;2023-06-10T14:58:55;30.60;56.80
15262;DHT22;7733;51.554;13.590;2023-06-10T15:01:20;30.60;57.10
15262;DHT22;7733;51.554;13.590;2023-06-10T15:03:46;30.40;58.00
15262;DHT22;7733;51.554;13.590;2023-06-10T15:06:12;30.10;57.80
15262;DHT22;7733;51.554;13.590;2023-06-10T15:08:37;29.50;57.30
15262;DHT22;7733;51.554;13.590;2023-06-10T15:11:03;29.00;55.20
15262;DHT22;7733;51.554;13.590;2023-06-10T15:13:29;28.90;54.60
15262;DHT22;7733;51.554;13.590;2023-06-10T15:15:54;29.00;54.80
15262;DHT22;7733;51.554;13.590;2023-06-10T15:18:21;28.90;55.70
15262;DHT22;7733;51.554;13.590;2023-06-10T15:20:46;29.10;56.40
15262;DHT22;7733;51.554;13.590;2023-06-10T15:23:12;29.00;55.90
15262;DHT22;7733;51.554;13.590;2023-06-10T15:25:38;29.10;55.50
15262;DHT22;7733;51.554;13.590;2023-06-10T15:28:06;29.30;55.00
15262;DHT22;7733;51.554;13.590;2023-06-10T15:30:31;29.60;53.90
15262;DHT22;7733;51.554;13.590;2023-06-10T15:32:57;29.70;53.00
15262;DHT22;7733;51.554;13.590;2023-06-10T15:35:23;29.70;52.60
15262;DHT22;7733;51.554;13.590;2023-06-10T15:37:49;30.00;52.50
15262;DHT22;7733;51.554;13.590;2023-06-10T15:40:15;29.70;52.50
15262;DHT22;7733;51.554;13.590;2023-06-10T15:42:40;29.50;52.60
15262;DHT22;7733;51.554;13.590;2023-06-10T15:45:06;29.60;52.80